Astor — C6JR3 — position and weather

sailwx.info

Track history (hours):
 
Tides and Currents Weather Stations Pressure Air Temp Water Temp Dewpoint Dewpoint Depression Visibility Wind Speed Wind Dir Waves Ship Positions

Astor

Operator: Passat Ship Management Ltd

Last reported at 2018-Nov-05 15:48 UTC. Time now 2018-Nov-18 17:10 UTC.
Position N 09°16' W 079°55'.
Warning: this ship's position is 13 days out of date.

Length 176 m; draft 6.4 m.

Type: Ship. MMSI: 308214000.

Date/timePositionNaut miles runAvg speedWind from/ knotsBaromVisibWave heightAir tempDewpointWater temp
2018-Nov-05 15:48N 09°16' W 079°55'2 1.1
2018-Nov-05 13:59N 09°18' W 079°55'2 4.9
2018-Nov-05 13:30N 09°20' W 079°55'3 6.7
2018-Nov-05 13:03N 09°23' W 079°55'0 0.5
2018-Nov-05 13:01N 09°23' W 079°55'0 0.0
2018-Nov-05 12:28N 09°23' W 079°55'0 0.0
2018-Nov-05 12:01N 09°23' W 079°55'0 0.0
2018-Nov-05 11:58N 09°23' W 079°55'0 0.0
2018-Nov-05 11:28N 09°23' W 079°55'1 1.9
2018-Nov-05 11:03N 09°24' W 079°55'0 5.4
2018-Nov-05 11:00N 09°24' W 079°55'1 2.6
2018-Nov-05 10:30N 09°24' W 079°54'2 4.1
2018-Nov-05 10:03N 09°22' W 079°54'0 0.0
2018-Nov-05 10:00N 09°22' W 079°54'0 0.0
2018-Nov-05 09:29N 09°22' W 079°54'0 0.0
2018-Nov-05 09:02N 09°22' W 079°54'0 0.0
2018-Nov-05 08:59N 09°22' W 079°54'0 0.0
2018-Nov-05 08:29N 09°22' W 079°54'0 0.0
2018-Nov-05 08:02N 09°22' W 079°54'0 0.0
2018-Nov-05 07:59N 09°22' W 079°54'0 0.0
2018-Nov-05 07:28N 09°22' W 079°54'0 0.0
2018-Nov-05 07:01N 09°22' W 079°54'0 0.0
2018-Nov-05 06:58N 09°22' W 079°54'0 0.0
2018-Nov-05 06:28N 09°22' W 079°54'0 0.0
2018-Nov-05 06:01N 09°22' W 079°54'0 0.0
2018-Nov-05 05:58N 09°22' W 079°54'0 0.0
2018-Nov-05 05:28N 09°22' W 079°54'0 0.0
2018-Nov-05 05:03N 09°22' W 079°54'0 0.1
2018-Nov-05 05:00N 09°22' W 079°54'0 0.0
2018-Nov-05 04:30N 09°22' W 079°54'0 0.0
2018-Nov-05 04:03N 09°22' W 079°54'0 0.0
2018-Nov-05 04:00N 09°22' W 079°54'0 0.0
2018-Nov-05 03:30N 09°22' W 079°54'0 0.0
2018-Nov-05 03:03N 09°22' W 079°54'0 0.1
2018-Nov-05 02:59N 09°22' W 079°54'0 0.0
2018-Nov-05 02:29N 09°22' W 079°54'0 0.0
2018-Nov-05 02:02N 09°22' W 079°54'0 0.0
2018-Nov-05 01:59N 09°22' W 079°54'0 0.0
2018-Nov-05 01:29N 09°22' W 079°54'0 0.0
2018-Nov-05 01:02N 09°22' W 079°54'0 0.0
2018-Nov-05 00:59N 09°22' W 079°54'0 0.0
2018-Nov-05 00:28N 09°22' W 079°54'0 0.0
2018-Nov-05 00:01N 09°22' W 079°54'0 0.0
2018-Nov-04 23:58N 09°22' W 079°54'0 0.0
2018-Nov-04 23:28N 09°22' W 079°54'0 0.0
2018-Nov-04 23:01N 09°22' W 079°54'0 0.0
2018-Nov-04 22:58N 09°22' W 079°54'0 0.0
2018-Nov-04 22:28N 09°22' W 079°54'0 0.0
2018-Nov-04 22:03N 09°22' W 079°54'0 0.0
2018-Nov-04 22:00N 09°22' W 079°54'0 0.0
2018-Nov-04 21:30N 09°22' W 079°54'0 0.0
2018-Nov-04 21:03N 09°22' W 079°54'0 0.0
2018-Nov-04 21:00N 09°22' W 079°54'0 0.0
2018-Nov-04 20:30N 09°22' W 079°54'0 0.0
2018-Nov-04 20:03N 09°22' W 079°54'0 0.0
2018-Nov-04 20:00N 09°22' W 079°54'0 0.0
2018-Nov-04 19:30N 09°22' W 079°54'0 0.0
2018-Nov-04 19:03N 09°22' W 079°54'0 0.0
2018-Nov-04 19:00N 09°22' W 079°54'0 0.0
2018-Nov-04 18:30N 09°22' W 079°54'0 0.0
2018-Nov-04 18:03N 09°22' W 079°54'0 0.0
2018-Nov-04 18:00N 09°22' W 079°54'0 0.4
2018-Nov-04 17:30N 09°22' W 079°53'3 5.5
2018-Nov-04 17:00N 09°25' W 079°54'1813.5
2018-Nov-04 15:42N 09°42' W 079°48'25114.7
2018-Nov-03 22:39N 10°19' W 075°36'210.9
2018-Nov-03 22:30N 10°19' W 075°34'6 2.5
2018-Nov-03 20:13N 10°24' W 075°32'0 0.0
2018-Nov-03 19:19N 10°24' W 075°32'0 0.0
2018-Nov-03 19:01N 10°24' W 075°32'0 0.0
2018-Nov-03 17:15N 10°24' W 075°32'  
Track history (hours):
 
Tides and Currents Weather Stations Pressure Air Temp Water Temp Dewpoint Dewpoint Depression Visibility Wind Speed Wind Dir Waves Ship Positions

Astor

Operator: Passat Ship Management Ltd

Last reported at 2018-Nov-05 15:48 UTC. Time now 2018-Nov-18 17:10 UTC.
Position N 09°16' W 079°55'.
Warning: this ship's position is 13 days out of date.

Length 176 m; draft 6.4 m.

Type: Ship. MMSI: 308214000.

Date/timePositionNaut miles runAvg speedWind from/ knotsBaromVisibWave heightAir tempDewpointWater temp
2018-Nov-05 15:48N 09°16' W 079°55'2 1.1
2018-Nov-05 13:59N 09°18' W 079°55'2 4.9
2018-Nov-05 13:30N 09°20' W 079°55'3 6.7
2018-Nov-05 13:03N 09°23' W 079°55'0 0.5
2018-Nov-05 13:01N 09°23' W 079°55'0 0.0
2018-Nov-05 12:28N 09°23' W 079°55'0 0.0
2018-Nov-05 12:01N 09°23' W 079°55'0 0.0
2018-Nov-05 11:58N 09°23' W 079°55'0 0.0
2018-Nov-05 11:28N 09°23' W 079°55'1 1.9
2018-Nov-05 11:03N 09°24' W 079°55'0 5.4
2018-Nov-05 11:00N 09°24' W 079°55'1 2.6
2018-Nov-05 10:30N 09°24' W 079°54'2 4.1
2018-Nov-05 10:03N 09°22' W 079°54'0 0.0
2018-Nov-05 10:00N 09°22' W 079°54'0 0.0
2018-Nov-05 09:29N 09°22' W 079°54'0 0.0
2018-Nov-05 09:02N 09°22' W 079°54'0 0.0
2018-Nov-05 08:59N 09°22' W 079°54'0 0.0
2018-Nov-05 08:29N 09°22' W 079°54'0 0.0
2018-Nov-05 08:02N 09°22' W 079°54'0 0.0
2018-Nov-05 07:59N 09°22' W 079°54'0 0.0
2018-Nov-05 07:28N 09°22' W 079°54'0 0.0
2018-Nov-05 07:01N 09°22' W 079°54'0 0.0
2018-Nov-05 06:58N 09°22' W 079°54'0 0.0
2018-Nov-05 06:28N 09°22' W 079°54'0 0.0
2018-Nov-05 06:01N 09°22' W 079°54'0 0.0
2018-Nov-05 05:58N 09°22' W 079°54'0 0.0
2018-Nov-05 05:28N 09°22' W 079°54'0 0.0
2018-Nov-05 05:03N 09°22' W 079°54'0 0.1
2018-Nov-05 05:00N 09°22' W 079°54'0 0.0
2018-Nov-05 04:30N 09°22' W 079°54'0 0.0
2018-Nov-05 04:03N 09°22' W 079°54'0 0.0
2018-Nov-05 04:00N 09°22' W 079°54'0 0.0
2018-Nov-05 03:30N 09°22' W 079°54'0 0.0
2018-Nov-05 03:03N 09°22' W 079°54'0 0.1
2018-Nov-05 02:59N 09°22' W 079°54'0 0.0
2018-Nov-05 02:29N 09°22' W 079°54'0 0.0
2018-Nov-05 02:02N 09°22' W 079°54'0 0.0
2018-Nov-05 01:59N 09°22' W 079°54'0 0.0
2018-Nov-05 01:29N 09°22' W 079°54'0 0.0
2018-Nov-05 01:02N 09°22' W 079°54'0 0.0
2018-Nov-05 00:59N 09°22' W 079°54'0 0.0
2018-Nov-05 00:28N 09°22' W 079°54'0 0.0
2018-Nov-05 00:01N 09°22' W 079°54'0 0.0
2018-Nov-04 23:58N 09°22' W 079°54'0 0.0
2018-Nov-04 23:28N 09°22' W 079°54'0 0.0
2018-Nov-04 23:01N 09°22' W 079°54'0 0.0
2018-Nov-04 22:58N 09°22' W 079°54'0 0.0
2018-Nov-04 22:28N 09°22' W 079°54'0 0.0
2018-Nov-04 22:03N 09°22' W 079°54'0 0.0
2018-Nov-04 22:00N 09°22' W 079°54'0 0.0
2018-Nov-04 21:30N 09°22' W 079°54'0 0.0
2018-Nov-04 21:03N 09°22' W 079°54'0 0.0
2018-Nov-04 21:00N 09°22' W 079°54'0 0.0
2018-Nov-04 20:30N 09°22' W 079°54'0 0.0
2018-Nov-04 20:03N 09°22' W 079°54'0 0.0
2018-Nov-04 20:00N 09°22' W 079°54'0 0.0
2018-Nov-04 19:30N 09°22' W 079°54'0 0.0
2018-Nov-04 19:03N 09°22' W 079°54'0 0.0
2018-Nov-04 19:00N 09°22' W 079°54'0 0.0
2018-Nov-04 18:30N 09°22' W 079°54'0 0.0
2018-Nov-04 18:03N 09°22' W 079°54'0 0.0
2018-Nov-04 18:00N 09°22' W 079°54'0 0.4
2018-Nov-04 17:30N 09°22' W 079°53'3 5.5
2018-Nov-04 17:00N 09°25' W 079°54'1813.5
2018-Nov-04 15:42N 09°42' W 079°48'25114.7
2018-Nov-03 22:39N 10°19' W 075°36'210.9
2018-Nov-03 22:30N 10°19' W 075°34'6 2.5
2018-Nov-03 20:13N 10°24' W 075°32'0 0.0
2018-Nov-03 19:19N 10°24' W 075°32'0 0.0
2018-Nov-03 19:01N 10°24' W 075°32'0 0.0
2018-Nov-03 17:15N 10°24' W 075°32'  

Dump ship's entire track history